マイアミ の空港の天気 - METARとTAF

マイアミ国際空港 ( KMIA / MIA ) - アメリカ フロリダ州マイアミ
飛行場実況気象(Metar)
観測時間10/22 08:19 EDT (10/22 12:19 UTC)
風向・風速北東 5m/s
視程10km以上
天気現象弱い雨
全天の8割程度の雲 雲底高度 460m
全天の8割程度の雲 雲底高度 2130m
全天を覆う雲 雲底高度 3350m
気温23.9℃
湿度94%
気圧1015hPa
METARKMIA 221219Z 04010KT 7SM -RA BKN015 BKN070 OVC110 24/23 A2996 RMK AO2 P0001 T02390228 $
過去の天気等 Google飛行場航空写真 Wunderground天気予報

過去48時間のMETAR

飛行場予報(TAF)
発表時間: 10/22 07:40 EDT (10/22 11:40 UTC)
予報対象時間: 22日8時 EDT ~ 23日14時 EDT
風向・風速東北東 5m/s
視程10km以上
天気現象周辺でしゅう雨
少しの雲 雲底高度 460m
全天の4割程度の雲 雲底高度 760m
全天の8割程度の雲 雲底高度 3050m
22日8時 EDT ~ 22日9時 EDT に一時的に
風向・風速不定 8m/s 瞬間風速 13m/s
視程4830m
天気現象しゅう雨
全天の4割程度の雲 雲底高度 460m
全天の8割程度の雲 雲底高度 760m
22日9時 EDT から
風向・風速東 6m/s
視程10km以上
天気現象周辺でしゅう雨
全天の4割程度の雲 雲底高度 760m
全天の4割程度の雲 雲底高度 3050m
22日14時 EDT から
風向・風速東 8m/s
視程10km以上
天気現象周辺でしゅう雨
全天の4割程度の雲 雲底高度 760m
全天の8割程度の雲 雲底高度 1520m
22日22時 EDT から
風向・風速東 5m/s
視程10km以上
全天の4割程度の雲 雲底高度 910m
全天の8割程度の雲 雲底高度 2440m
23日11時 EDT から
風向・風速東 6m/s
視程10km以上
天気現象周辺でしゅう雨
全天の4割程度の雲 雲底高度 760m
全天の8割程度の雲 雲底高度 1520m
KMIA 221140Z 2212/2318 07010KT P6SM VCSH FEW015 SCT025 BKN100
TEMPO 2212/2213 VRB15G25KT 3SM SHRA SCT015 BKN025
FM221300 09012KT P6SM VCSH SCT025 SCT100
FM221800 10015KT P6SM VCSH SCT025 BKN050
FM230200 10010KT P6SM SCT030 BKN080
FM231500 10011KT P6SM VCSH SCT025 BKN050